Time;durP1;ratioP1;P1;durP2;ratioP2;P2;SDS_P1;SDS_P2;PMS_P1;PMS_P2;Temp;Humidity;BMP_temperature;BMP_pressure;BME280_temperature;BME280_humidity;BME280_pressure;Samples;Min_cycle;Max_cycle;Signal;HPM_P1;HPM_P2
2021/07/04 00:01:39;;;;;;;;;8.50;7.00;;;;;19.78;65.54;100465.53;4974387;28;68990;-59
2021/07/04 00:04:04;;;;;;;;;9.50;8.50;;;;;19.76;65.46;100466.72;4974258;28;68796;-59
2021/07/04 00:06:30;;;;;;;;;13.00;11.00;;;;;19.73;65.11;100471.44;4974412;28;62926;-60
2021/07/04 00:08:55;;;;;;;;;11.50;11.00;;;;;19.71;64.91;100457.47;4974248;28;68245;-60
2021/07/04 00:11:20;;;;;;;;;12.50;11.75;;;;;19.71;64.99;100449.47;4974263;28;64047;-60
2021/07/04 00:13:46;;;;;;;;;14.50;11.00;;;;;19.70;64.67;100445.16;4974415;28;60433;-60
2021/07/04 00:16:11;;;;;;;;;12.50;11.50;;;;;19.70;64.57;100442.50;4975223;28;45314;-60
2021/07/04 00:18:37;;;;;;;;;11.00;8.00;;;;;19.70;65.12;100442.50;4974226;28;62921;-59
2021/07/04 00:21:03;;;;;;;;;10.25;9.25;;;;;19.68;64.92;100444.53;4974743;28;45378;-59
2021/07/04 00:23:29;;;;;;;;;10.00;9.00;;;;;19.67;65.21;100447.41;4975080;28;45411;-59
2021/07/04 00:25:54;;;;;;;;;8.25;8.25;;;;;19.65;65.42;100450.25;4974126;28;62940;-60
2021/07/04 00:28:22;;;;;;;;;10.00;9.00;;;;;19.63;65.57;100444.31;4972841;28;59910;-59
2021/07/04 00:30:48;;;;;;;;;7.75;7.75;;;;;19.60;65.47;100436.75;4974885;28;45170;-60
2021/07/04 00:33:13;;;;;;;;;10.50;9.00;;;;;19.58;65.53;100439.59;4974908;28;45340;-60
2021/07/04 00:35:39;;;;;;;;;9.50;7.00;;;;;19.57;65.76;100435.28;4974203;28;61714;-59
2021/07/04 00:38:05;;;;;;;;;9.75;8.25;;;;;19.54;66.07;100438.34;4974625;28;45902;-60
2021/07/04 00:40:30;;;;;;;;;10.25;9.25;;;;;19.52;65.66;100423.56;4974662;28;45396;-59
2021/07/04 00:42:56;;;;;;;;;11.75;10.25;;;;;19.50;65.67;100430.94;4973858;28;66380;-60
2021/07/04 00:45:23;;;;;;;;;10.75;10.00;;;;;19.47;65.26;100429.47;4974757;28;45422;-59
2021/07/04 00:47:49;;;;;;;;;9.75;8.00;;;;;19.47;65.45;100423.34;4974423;28;45416;-60
2021/07/04 00:50:15;;;;;;;;;10.00;9.00;;;;;19.47;65.73;100423.34;4974432;28;45354;-60
2021/07/04 00:52:41;;;;;;;;;13.75;11.50;;;;;19.46;65.71;100417.19;4974745;28;45317;-60
2021/07/04 00:55:07;;;;;;;;;9.00;9.00;;;;;19.45;65.88;100417.41;4973740;28;70446;-59
2021/07/04 00:57:33;;;;;;;;;9.50;9.00;;;;;19.43;65.78;100415.75;4974454;28;46352;-59
2021/07/04 00:59:58;;;;;;;;;12.75;9.00;;;;;19.43;65.66;100417.56;4974432;28;45186;-59
2021/07/04 01:02:24;;;;;;;;;11.00;9.50;;;;;19.42;66.00;100418.59;4974513;28;45220;-60
2021/07/04 01:04:50;;;;;;;;;9.50;9.50;;;;;19.41;66.07;100417.78;4974609;28;45551;-60
2021/07/04 01:07:15;;;;;;;;;10.00;9.00;;;;;19.40;66.18;100428.63;4974151;28;45378;-60
2021/07/04 01:09:41;;;;;;;;;11.00;9.00;;;;;19.38;66.09;100414.69;4973562;28;61787;-60
2021/07/04 01:12:06;;;;;;;;;8.75;7.75;;;;;19.39;66.04;100424.31;4973531;28;61823;-60
2021/07/04 01:14:32;;;;;;;;;12.25;9.00;;;;;19.37;66.21;100411.22;4974251;28;45396;-60
2021/07/04 01:17:00;;;;;;;;;10.50;10.00;;;;;19.36;66.12;100414.88;4972402;28;65086;-59
2021/07/04 01:19:25;;;;;;;;;11.00;10.00;;;;;19.36;66.13;100406.91;4972689;28;45359;-60
2021/07/04 01:21:53;;;;;;;;;10.75;9.75;;;;;19.39;66.16;100406.50;4974248;28;45864;-60
2021/07/04 01:24:18;;;;;;;;;9.25;8.75;;;;;19.35;66.09;100405.25;4973011;28;45586;-59
2021/07/04 01:26:43;;;;;;;;;11.75;9.25;;;;;19.32;65.98;100402.97;4972370;28;60196;-60
2021/07/04 01:29:09;;;;;;;;;11.25;9.50;;;;;19.29;66.27;100398.03;4972102;28;69898;-60
2021/07/04 01:31:35;;;;;;;;;11.75;10.00;;;;;19.25;66.06;100407.44;4973320;28;65006;-60
2021/07/04 01:34:00;;;;;;;;;12.50;10.50;;;;;19.23;66.48;100409.47;4974256;28;45453;-60
2021/07/04 01:36:25;;;;;;;;;12.00;10.25;;;;;19.22;66.26;100407.84;4973119;28;69272;-60
2021/07/04 01:38:51;;;;;;;;;9.00;9.00;;;;;19.21;66.77;100408.84;4972625;28;65709;-60
2021/07/04 01:41:16;;;;;;;;;12.00;11.00;;;;;19.22;66.16;100407.84;4974034;28;45359;-60
2021/07/04 01:43:41;;;;;;;;;10.00;8.50;;;;;19.19;66.01;100409.06;4973025;28;66278;-60
2021/07/04 01:46:07;;;;;;;;;11.75;10.50;;;;;19.17;66.07;100405.78;4973781;28;45346;-60
2021/07/04 01:48:32;;;;;;;;;10.00;10.00;;;;;19.16;66.30;100403.28;4973031;28;63729;-60
2021/07/04 01:50:58;;;;;;;;;9.25;9.00;;;;;19.16;66.10;100403.28;4973586;28;45342;-59
2021/07/04 01:53:23;;;;;;;;;11.00;10.00;;;;;19.14;66.09;100398.19;4972463;28;45390;-60
2021/07/04 01:55:48;;;;;;;;;11.75;10.00;;;;;19.09;66.20;100393.41;4972855;28;65175;-59
2021/07/04 01:58:14;;;;;;;;;9.50;9.25;;;;;19.05;66.32;100400.19;4972949;28;59581;-60
2021/07/04 02:00:40;;;;;;;;;9.50;8.50;;;;;19.01;66.21;100390.94;4973681;28;45236;-60
2021/07/04 02:03:08;;;;;;;;;10.00;10.00;;;;;19.00;66.34;100386.63;4973457;28;46374;-61
2021/07/04 02:05:33;;;;;;;;;12.25;9.50;;;;;18.99;66.26;100390.31;4973032;28;46298;-60
2021/07/04 02:07:59;;;;;;;;;10.50;9.00;;;;;18.96;66.31;100393.38;4972659;28;66594;-60
2021/07/04 02:10:32;;;;;;;;;10.50;10.25;;;;;18.92;66.52;100390.22;4972834;28;59609;-60
2021/07/04 02:12:57;;;;;;;;;9.00;9.00;;;;;18.87;66.44;100387.31;4973402;28;45299;-60
2021/07/04 02:15:24;;;;;;;;;11.00;9.00;;;;;18.85;66.35;100386.69;4973480;28;45307;-59
2021/07/04 02:17:50;;;;;;;;;9.00;9.00;;;;;18.84;66.52;100391.19;4973295;28;45258;-60
2021/07/04 02:20:33;;;;;;;;;13.00;9.00;;;;;18.84;66.56;100385.03;4973149;28;45480;-60
2021/07/04 02:23:03;;;;;;;;;9.00;8.25;;;;;18.81;66.56;100388.94;4973299;28;45363;-59
2021/07/04 02:25:29;;;;;;;;;11.00;9.00;;;;;18.80;66.41;100375.81;4973199;28;46138;-60
2021/07/04 02:27:54;;;;;;;;;13.00;8.25;;;;;18.79;66.52;100376.84;4971889;28;45386;-60
2021/07/04 02:30:20;;;;;;;;;9.25;9.00;;;;;18.75;66.48;100376.41;4973211;28;45311;-61
2021/07/04 02:32:45;;;;;;;;;8.75;8.25;;;;;18.71;66.52;100377.78;4955815;28;45485;-60
2021/07/04 02:35:11;;;;;;;;;10.00;8.50;;;;;18.69;66.62;100379.81;4972103;28;69215;-60
2021/07/04 02:37:36;;;;;;;;;9.00;8.50;;;;;18.68;66.81;100378.19;4971711;28;45518;-60
2021/07/04 02:40:03;;;;;;;;;11.75;10.00;;;;;18.67;66.52;100371.22;4972213;28;61790;-60
2021/07/04 02:42:28;;;;;;;;;10.25;10.00;;;;;18.67;66.31;100374.72;4973003;28;45297;-61
2021/07/04 02:44:53;;;;;;;;;10.75;10.00;;;;;18.68;66.76;100370.19;4971773;28;74194;-57
2021/07/04 02:47:19;;;;;;;;;11.50;10.00;;;;;18.66;66.50;100373.06;4972919;28;45454;-60
2021/07/04 02:49:44;;;;;;;;;13.00;9.50;;;;;18.64;66.62;100376.91;4972804;28;45269;-60
2021/07/04 02:52:10;;;;;;;;;13.75;11.75;;;;;18.61;66.62;100387.94;4974490;28;45280;-60
2021/07/04 02:54:35;;;;;;;;;13.00;11.00;;;;;18.58;66.86;100375.88;4975261;28;66410;-60
2021/07/04 02:57:05;;;;;;;;;11.50;10.00;;;;;18.55;66.86;100370.94;4975091;28;66416;-60
2021/07/04 02:59:31;;;;;;;;;17.00;11.75;;;;;18.56;66.94;100377.06;4974985;28;45295;-60
2021/07/04 03:01:57;;;;;;;;;15.25;11.00;;;;;18.58;66.85;100380.34;4974923;28;45529;-60
2021/07/04 03:04:22;;;;;;;;;12.25;11.00;;;;;18.58;66.79;100383.00;4975727;28;46131;-60
2021/07/04 03:06:48;;;;;;;;;10.75;10.00;;;;;18.55;66.95;100376.25;4975750;28;45239;-60
2021/07/04 03:09:13;;;;;;;;;10.00;9.75;;;;;18.53;66.99;100373.78;4975738;28;45305;-60
2021/07/04 03:11:40;;;;;;;;;13.25;9.75;;;;;18.51;67.02;100373.16;4975475;28;52318;-60
2021/07/04 03:14:06;;;;;;;;;10.25;7.50;;;;;18.49;67.13;100364.56;4975594;28;45497;-59
2021/07/04 03:16:31;;;;;;;;;12.75;11.50;;;;;18.48;67.12;100354.94;4974515;28;73156;-60
2021/07/04 03:18:56;;;;;;;;;12.25;12.25;;;;;18.47;67.25;100350.63;4974746;28;65208;-59
2021/07/04 03:21:22;;;;;;;;;14.00;11.75;;;;;18.47;67.32;100350.63;4974713;28;70203;-60
2021/07/04 03:23:47;;;;;;;;;12.75;11.00;;;;;18.49;67.31;100355.72;4974966;28;61255;-60
2021/07/04 03:26:12;;;;;;;;;13.00;10.75;;;;;18.50;67.37;100352.06;4975649;28;45460;-59
2021/07/04 03:28:38;;;;;;;;;14.50;12.25;;;;;18.50;67.32;100342.25;4974530;28;45407;-60
2021/07/04 03:31:03;;;;;;;;;12.25;11.00;;;;;18.52;66.97;100334.06;4974879;28;62645;-60
2021/07/04 03:33:29;;;;;;;;;10.50;9.50;;;;;18.51;66.94;100332.41;4974556;28;67963;-60
2021/07/04 03:35:54;;;;;;;;;11.25;8.50;;;;;18.50;67.31;100336.94;4975520;28;45330;-59
2021/07/04 03:38:20;;;;;;;;;14.00;11.00;;;;;18.48;67.40;100341.63;4975541;28;45377;-60
2021/07/04 03:40:45;;;;;;;;;13.00;10.75;;;;;18.47;67.83;100344.47;4975037;28;52479;-60
2021/07/04 03:43:11;;;;;;;;;12.25;9.25;;;;;18.46;67.62;100346.31;4975297;28;46071;-60
2021/07/04 03:45:36;;;;;;;;;8.50;8.50;;;;;18.47;67.69;100337.31;4975146;28;52727;-60
2021/07/04 03:48:01;;;;;;;;;8.00;8.00;;;;;18.49;67.93;100337.09;4974669;28;60366;-60
2021/07/04 03:50:27;;;;;;;;;8.00;7.75;;;;;18.50;67.99;100336.94;4975377;28;45208;-60
2021/07/04 03:52:55;;;;;;;;;9.25;8.50;;;;;18.54;67.76;100340.00;4974949;28;45999;-59
2021/07/04 03:55:21;;;;;;;;;9.00;8.00;;;;;18.57;67.96;100339.63;4975108;28;45331;-60
2021/07/04 03:57:46;;;;;;;;;9.00;9.00;;;;;18.59;67.87;100332.28;4975412;28;45261;-60
2021/07/04 04:00:12;;;;;;;;;8.00;7.00;;;;;18.60;68.00;100331.25;4974544;28;57264;-59
2021/07/04 04:02:37;;;;;;;;;8.50;8.50;;;;;18.63;67.61;100332.69;4974634;28;46027;-60
2021/07/04 04:05:03;;;;;;;;;10.25;7.75;;;;;18.65;68.25;100333.31;4974400;28;61754;-60
2021/07/04 04:07:29;;;;;;;;;8.00;7.50;;;;;18.68;68.31;100330.28;4975315;28;45305;-60
2021/07/04 04:09:54;;;;;;;;;8.50;7.50;;;;;18.68;68.47;100327.63;4975274;28;45539;-60
2021/07/04 04:12:20;;;;;;;;;8.00;7.25;;;;;18.69;68.96;100323.94;4974453;28;63886;-60
2021/07/04 04:14:45;;;;;;;;;9.50;9.00;;;;;18.71;68.62;100324.56;4975301;28;45487;-60
2021/07/04 04:17:11;;;;;;;;;10.50;7.00;;;;;18.72;68.62;100326.22;4975280;28;45307;-60
2021/07/04 04:19:36;;;;;;;;;8.25;7.50;;;;;18.73;68.85;100322.53;4975063;28;45376;-60
2021/07/04 04:22:02;;;;;;;;;9.50;6.25;;;;;18.74;68.70;100326.84;4974335;28;65524;-60
2021/07/04 04:24:27;;;;;;;;;8.00;8.00;;;;;18.74;68.73;100331.34;4975164;28;45251;-60
2021/07/04 04:26:52;;;;;;;;;8.50;8.00;;;;;18.75;69.00;100330.34;4974222;28;55646;-60
2021/07/04 04:29:18;;;;;;;;;8.75;7.00;;;;;18.76;69.08;100335.44;4975218;28;45329;-59
2021/07/04 04:31:43;;;;;;;;;7.25;7.25;;;;;18.74;69.34;100342.81;4974951;28;46253;-58
2021/07/04 04:34:09;;;;;;;;;9.50;8.25;;;;;18.72;69.95;100347.50;4974919;28;45312;-60
2021/07/04 04:36:34;;;;;;;;;7.00;6.00;;;;;18.72;70.04;100344.84;4975277;28;45305;-60
2021/07/04 04:39:00;;;;;;;;;4.50;4.50;;;;;18.72;70.45;100352.81;4975265;28;45164;-59
2021/07/04 04:41:25;;;;;;;;;6.00;4.00;;;;;18.75;70.20;100357.75;4973971;28;71123;-59
2021/07/04 04:43:50;;;;;;;;;3.75;3.25;;;;;18.75;70.83;100370.25;4973856;28;73172;-60
2021/07/04 04:46:16;;;;;;;;;5.25;5.00;;;;;18.77;70.74;100379.69;4973991;28;69177;-60
2021/07/04 04:48:43;;;;;;;;;3.00;3.00;;;;;18.79;70.87;100380.31;4974150;28;66177;-60
2021/07/04 04:51:08;;;;;;;;;6.00;3.00;;;;;18.81;70.61;100383.59;4974723;28;46386;-60
2021/07/04 04:53:34;;;;;;;;;5.75;3.75;;;;;18.83;70.56;100378.06;4974642;28;45307;-60
2021/07/04 04:55:59;;;;;;;;;3.50;3.50;;;;;18.83;70.09;100378.91;4974757;28;45261;-60
2021/07/04 04:58:24;;;;;;;;;3.00;3.00;;;;;18.84;69.84;100374.41;4974277;28;55146;-60
2021/07/04 05:00:50;;;;;;;;;2.25;2.00;;;;;18.81;70.23;100364.97;4973694;28;72125;-60
2021/07/04 05:03:15;;;;;;;;;3.00;2.75;;;;;18.82;70.67;100361.28;4974785;28;45297;-60
2021/07/04 05:05:41;;;;;;;;;3.75;3.00;;;;;18.83;70.84;100356.78;4974218;28;53491;-59
2021/07/04 05:08:06;;;;;;;;;4.00;3.25;;;;;18.84;70.91;100361.91;4973971;28;60705;-59
2021/07/04 05:10:31;;;;;;;;;3.50;3.50;;;;;18.85;70.66;100349.41;4974038;28;56652;-60
2021/07/04 05:12:57;;;;;;;;;3.00;3.00;;;;;18.87;70.96;100360.69;4974675;28;45358;-58
2021/07/04 05:15:22;;;;;;;;;4.25;3.25;;;;;18.88;70.81;100356.22;4973619;28;45573;-59
2021/07/04 05:17:48;;;;;;;;;3.50;2.75;;;;;18.87;70.87;100350.03;4973759;28;60442;-60
2021/07/04 05:20:13;;;;;;;;;4.00;4.00;;;;;18.87;71.12;100331.41;4973541;28;64586;-59
2021/07/04 05:22:38;;;;;;;;;4.00;4.00;;;;;18.88;71.68;100326.94;4973682;28;61765;-59
2021/07/04 05:25:05;;;;;;;;;3.50;3.00;;;;;18.89;71.30;100326.72;4974761;28;45308;-59
2021/07/04 05:27:30;;;;;;;;;4.00;3.50;;;;;18.91;71.18;100319.34;4974389;28;45352;-59
2021/07/04 05:29:55;;;;;;;;;3.25;3.25;;;;;18.91;71.08;100318.56;4974072;28;45374;-58
2021/07/04 05:32:21;;;;;;;;;3.00;3.00;;;;;18.91;71.07;100313.22;4972128;28;71068;-59
2021/07/04 05:34:46;;;;;;;;;3.50;3.50;;;;;18.93;71.13;100319.19;4974284;28;45811;-58
2021/07/04 05:37:12;;;;;;;;;3.25;3.00;;;;;18.92;70.89;100325.53;4974093;28;45322;-60
2021/07/04 05:39:38;;;;;;;;;2.25;2.25;;;;;18.91;71.11;100321.22;4973908;28;45292;-59
2021/07/04 05:42:03;;;;;;;;;3.00;3.00;;;;;18.91;70.69;100316.69;4974143;28;45244;-59
2021/07/04 05:44:29;;;;;;;;;3.75;3.75;;;;;18.92;71.03;100307.69;4975532;28;45351;-59
2021/07/04 05:46:54;;;;;;;;;6.00;5.75;;;;;18.92;70.88;100322.84;4974183;28;45299;-59
2021/07/04 05:49:19;;;;;;;;;3.25;3.00;;;;;18.90;70.88;100325.69;4973375;28;59652;-59
2021/07/04 05:51:45;;;;;;;;;6.50;4.25;;;;;18.89;71.07;100331.22;4973734;28;53959;-60
2021/07/04 05:54:10;;;;;;;;;4.50;4.50;;;;;18.86;70.97;100331.63;4974035;28;45287;-59
2021/07/04 05:56:36;;;;;;;;;4.25;4.00;;;;;18.83;71.04;100330.16;4973982;28;45207;-60
2021/07/04 05:59:02;;;;;;;;;3.00;3.00;;;;;18.82;71.17;100329.34;4973814;28;46305;-59
2021/07/04 06:01:27;;;;;;;;;3.25;3.00;;;;;18.80;71.42;100330.56;4973782;28;45238;-60
2021/07/04 06:03:52;;;;;;;;;5.50;4.00;;;;;18.80;71.41;100323.41;4973278;28;55133;-59
2021/07/04 06:06:18;;;;;;;;;2.50;2.50;;;;;18.80;71.46;100320.75;4973229;28;59501;-59
2021/07/04 06:08:43;;;;;;;;;3.25;3.25;;;;;18.80;71.37;100319.94;4973202;28;53833;-60
2021/07/04 06:11:09;;;;;;;;;3.75;3.00;;;;;18.83;71.52;100322.16;4972706;28;69942;-59
2021/07/04 06:13:34;;;;;;;;;3.00;3.00;;;;;18.83;71.41;100325.66;4973877;28;45224;-59
2021/07/04 06:16:00;;;;;;;;;2.50;2.50;;;;;18.84;71.72;100326.47;4973712;28;45369;-60
2021/07/04 06:18:25;;;;;;;;;2.25;2.25;;;;;18.86;71.36;100324.44;4973459;28;45528;-59
2021/07/04 06:20:51;;;;;;;;;4.00;4.00;;;;;18.88;71.28;100329.59;4973160;28;45492;-59
2021/07/04 06:23:16;;;;;;;;;3.25;3.00;;;;;18.89;71.43;100328.56;4973770;28;45450;-59
2021/07/04 06:25:42;;;;;;;;;3.25;3.25;;;;;18.90;71.32;100330.22;4974605;28;45437;-59
2021/07/04 06:28:07;;;;;;;;;3.25;2.00;;;;;18.91;71.44;100332.66;4975937;28;59495;-59
2021/07/04 06:30:33;;;;;;;;;3.00;3.00;;;;;18.92;71.10;100326.31;4976374;28;45314;-59
2021/07/04 06:32:58;;;;;;;;;4.25;2.75;;;;;18.94;71.01;100326.16;4976358;28;45477;-59
2021/07/04 06:35:23;;;;;;;;;5.25;4.75;;;;;18.97;71.04;100331.91;4975991;28;51289;-59
2021/07/04 06:37:50;;;;;;;;;5.00;3.25;;;;;18.99;70.90;100326.41;4975751;28;61531;-59
2021/07/04 06:40:15;;;;;;;;;3.00;3.00;;;;;19.01;71.18;100339.50;4976400;28;45813;-59
2021/07/04 06:42:40;;;;;;;;;2.50;2.00;;;;;19.02;70.76;100333.16;4976434;28;45193;-59
2021/07/04 06:45:09;;;;;;;;;3.50;3.25;;;;;19.04;71.45;100325.81;4976185;28;45153;-57
2021/07/04 06:47:34;;;;;;;;;4.00;4.00;;;;;19.07;71.38;100330.75;4976303;28;46157;-59
2021/07/04 06:50:00;;;;;;;;;3.50;3.50;;;;;19.09;71.68;100331.38;4975307;28;69031;-59
2021/07/04 06:52:25;;;;;;;;;4.75;4.50;;;;;19.11;71.32;100338.13;4976296;28;45507;-58
2021/07/04 06:54:50;;;;;;;;;7.25;5.00;;;;;19.13;71.25;100330.75;4975501;28;58917;-60
2021/07/04 06:57:28;;;;;;;;;5.00;5.00;;;;;19.17;71.09;100333.03;4974883;28;73275;-59
2021/07/04 06:59:58;;;;;;;;;6.00;6.00;;;;;19.19;71.20;100307.03;4976054;28;45264;-60
2021/07/04 07:02:26;;;;;;;;;7.00;6.50;;;;;19.23;71.45;100311.78;4976210;28;45331;-59
2021/07/04 07:04:52;;;;;;;;;8.25;8.00;;;;;19.28;71.39;100311.16;4975961;28;45726;-59
2021/07/04 07:07:18;;;;;;;;;6.00;6.00;;;;;19.32;71.89;100315.06;4975793;28;45417;-59
2021/07/04 07:09:43;;;;;;;;;8.00;6.75;;;;;19.36;71.43;100318.97;4975968;28;45427;-59
2021/07/04 07:12:09;;;;;;;;;6.75;5.75;;;;;19.40;71.46;100320.22;4975330;28;56083;-59
2021/07/04 07:14:34;;;;;;;;;5.00;5.00;;;;;19.45;71.25;100321.47;4975774;28;45566;-59
2021/07/04 07:17:00;;;;;;;;;6.75;6.00;;;;;19.50;71.27;100327.03;4974877;28;73166;-59
2021/07/04 07:19:25;;;;;;;;;5.00;5.00;;;;;19.52;71.20;100327.66;4975555;28;45435;-60
2021/07/04 07:21:50;;;;;;;;;5.00;5.00;;;;;19.55;71.29;100321.91;4975192;28;61403;-59
2021/07/04 07:24:16;;;;;;;;;6.00;5.75;;;;;19.58;71.28;100321.53;4975214;28;54568;-59
2021/07/04 07:26:41;;;;;;;;;6.00;6.00;;;;;19.61;71.17;100321.09;4975000;28;66532;-59
2021/07/04 07:29:06;;;;;;;;;8.50;8.00;;;;;19.62;71.03;100321.94;4974680;28;70737;-59
2021/07/04 07:31:35;;;;;;;;;6.25;6.25;;;;;19.65;70.76;100318.88;4974975;28;67256;-59
2021/07/04 07:34:01;;;;;;;;;12.25;11.00;;;;;19.67;70.92;100317.63;4975738;28;45288;-59
2021/07/04 07:36:26;;;;;;;;;8.50;7.25;;;;;19.71;70.71;100318.88;4975509;28;46180;-59
2021/07/04 07:38:52;;;;;;;;;5.00;4.75;;;;;19.80;71.11;100326.69;4974702;28;57609;-59
2021/07/04 07:41:18;;;;;;;;;5.50;5.50;;;;;19.89;71.15;100328.16;4975694;28;45390;-58
2021/07/04 07:43:44;;;;;;;;;8.00;6.00;;;;;19.98;70.94;100329.63;4975614;28;45324;-59
2021/07/04 07:46:09;;;;;;;;;7.00;5.75;;;;;20.06;71.23;100330.44;4975643;28;46173;-60
2021/07/04 07:48:35;;;;;;;;;9.50;7.00;;;;;20.11;70.09;100336.81;4974177;28;45343;-59
2021/07/04 07:51:00;;;;;;;;;7.00;7.00;;;;;20.16;70.25;100338.84;4975602;28;45456;-59
2021/07/04 07:53:25;;;;;;;;;6.00;5.75;;;;;20.21;70.17;100341.72;4974958;28;57023;-59
2021/07/04 07:55:51;;;;;;;;;7.00;7.00;;;;;20.25;69.74;100340.28;4975336;28;45240;-58
2021/07/04 07:58:16;;;;;;;;;7.00;5.75;;;;;20.28;70.57;100331.88;4975278;28;45381;-59
2021/07/04 08:00:42;;;;;;;;;6.00;5.00;;;;;20.33;69.80;100333.94;4975490;28;45350;-60
2021/07/04 08:03:07;;;;;;;;;8.75;7.00;;;;;20.37;69.45;100335.19;4975269;28;45337;-59
2021/07/04 08:05:32;;;;;;;;;9.00;4.75;;;;;20.43;69.28;100328.19;4974309;28;70289;-59
2021/07/04 08:07:58;;;;;;;;;5.00;5.00;;;;;20.49;69.05;100338.03;4974923;28;55320;-58
2021/07/04 08:10:23;;;;;;;;;5.00;5.00;;;;;20.53;69.60;100347.28;4974937;28;55901;-60
2021/07/04 08:12:49;;;;;;;;;7.00;6.00;;;;;20.55;69.50;100339.88;4974998;28;45434;-59
2021/07/04 08:15:14;;;;;;;;;5.25;4.50;;;;;20.58;69.23;100334.13;4975024;28;45350;-60
2021/07/04 08:17:40;;;;;;;;;7.75;5.75;;;;;20.58;68.59;100326.13;4973308;28;62549;-60
2021/07/04 08:20:05;;;;;;;;;4.50;4.50;;;;;20.61;68.76;100331.03;4974975;28;45283;-59
2021/07/04 08:22:31;;;;;;;;;6.00;5.00;;;;;20.69;68.49;100326.50;4973735;28;45577;-59
2021/07/04 08:24:56;;;;;;;;;10.50;8.50;;;;;20.81;69.05;100330.19;4974105;28;72440;-59
2021/07/04 08:27:22;;;;;;;;;7.75;6.00;;;;;20.93;68.36;100322.34;4975044;28;45319;-59
2021/07/04 08:29:47;;;;;;;;;6.00;6.00;;;;;21.09;68.46;100325.59;4974121;28;65280;-59
2021/07/04 08:32:12;;;;;;;;;6.50;5.75;;;;;21.25;68.34;100334.97;4974526;28;52176;-59
2021/07/04 08:34:38;;;;;;;;;6.00;5.00;;;;;21.32;66.87;100338.47;4973778;28;76001;-59
2021/07/04 08:37:03;;;;;;;;;5.00;5.00;;;;;21.38;65.91;100331.47;4974436;28;59078;-60
2021/07/04 08:39:29;;;;;;;;;5.50;4.75;;;;;21.40;65.45;100332.88;4974432;28;45500;-59
2021/07/04 08:41:54;;;;;;;;;5.50;5.50;;;;;21.44;65.89;100322.59;4974475;28;53687;-59
2021/07/04 08:44:19;;;;;;;;;7.75;4.25;;;;;21.48;65.08;100305.06;4974003;28;66810;-59
2021/07/04 08:46:45;;;;;;;;;4.00;4.00;;;;;21.58;65.70;100293.94;4956409;28;64846;-59
2021/07/04 08:49:12;;;;;;;;;4.75;4.25;;;;;21.67;63.61;100287.31;4973502;28;45386;-59
2021/07/04 08:51:37;;;;;;;;;4.75;4.00;;;;;21.72;64.51;100284.00;4974878;28;45531;-59
2021/07/04 08:54:03;;;;;;;;;4.00;4.00;;;;;21.78;63.77;100294.63;4973559;28;68917;-59
2021/07/04 08:56:28;;;;;;;;;4.00;4.00;;;;;21.79;62.97;100290.91;4974666;28;45358;-59
2021/07/04 08:58:53;;;;;;;;;4.00;3.75;;;;;21.82;63.62;100292.34;4973101;28;58154;-59
2021/07/04 09:01:20;;;;;;;;;5.50;5.00;;;;;21.88;63.10;100296.00;4974845;28;45335;-59
2021/07/04 09:03:47;;;;;;;;;4.00;4.00;;;;;21.94;63.85;100304.00;4972878;28;47169;-59
2021/07/04 09:06:13;;;;;;;;;5.00;3.50;;;;;22.01;62.60;100311.97;4974611;28;45762;-60
2021/07/04 09:08:38;;;;;;;;;4.00;4.00;;;;;22.06;62.54;100314.81;4973553;28;45293;-60
2021/07/04 09:11:14;;;;;;;;;3.50;3.25;;;;;22.14;62.57;100311.03;4974619;28;45233;-59
2021/07/04 09:13:41;;;;;;;;;3.00;3.00;;;;;22.27;61.25;100315.44;4974515;28;46373;-59
2021/07/04 09:16:09;;;;;;;;;3.25;3.00;;;;;22.40;60.94;100309.19;4974464;28;45244;-59
2021/07/04 09:18:35;;;;;;;;;4.00;3.25;;;;;22.54;60.26;100307.22;4957304;28;45343;-60
2021/07/04 09:21:00;;;;;;;;;3.25;2.75;;;;;22.63;60.99;100316.59;4974247;28;45642;-59
2021/07/04 09:23:33;;;;;;;;;4.00;4.00;;;;;22.70;60.47;100310.34;4974281;28;45897;-60
2021/07/04 09:25:58;;;;;;;;;2.00;2.00;;;;;22.73;59.43;100307.25;4972755;28;45268;-60
2021/07/04 09:28:24;;;;;;;;;2.25;1.75;;;;;22.78;57.97;100307.41;4973577;28;65954;-59
2021/07/04 09:30:54;;;;;;;;;2.50;2.00;;;;;22.89;58.74;100303.13;4973635;28;59765;-59
2021/07/04 09:33:21;;;;;;;;;4.00;2.25;;;;;23.04;58.46;100308.09;4973877;28;46232;-59
2021/07/04 09:35:57;;;;;;;;;2.50;2.00;;;;;23.22;57.20;100299.22;4972705;28;45313;-59
2021/07/04 09:38:23;;;;;;;;;1.00;1.00;;;;;23.38;54.96;100295.97;4974285;28;45284;-59
2021/07/04 09:40:49;;;;;;;;;1.00;1.00;;;;;23.55;54.06;100288.09;4973851;28;45240;-59
2021/07/04 09:43:18;;;;;;;;;2.00;0.00;;;;;23.68;53.22;100281.69;4972574;28;46158;-60
2021/07/04 09:45:48;;;;;;;;;1.00;1.00;;;;;23.77;52.54;100279.53;4972711;28;45368;-60
2021/07/04 09:48:28;;;;;;;;;1.00;0.75;;;;;23.89;53.33;100279.53;4974613;28;45303;-60
2021/07/04 09:50:55;;;;;;;;;1.00;1.00;;;;;23.98;52.65;100271.94;4974143;28;45541;-60
2021/07/04 09:53:21;;;;;;;;;1.00;1.00;;;;;24.13;52.51;100266.97;4973616;28;45429;-59
2021/07/04 09:55:51;;;;;;;;;1.00;1.00;;;;;24.28;51.48;100279.13;4973809;28;45793;-60
2021/07/04 09:58:16;;;;;;;;;1.00;1.00;;;;;24.41;50.42;100278.06;4972783;28;45457;-60
2021/07/04 10:00:43;;;;;;;;;1.00;1.00;;;;;24.54;48.92;100266.25;4972801;28;63763;-59
2021/07/04 10:03:14;;;;;;;;;1.00;1.00;;;;;24.63;49.79;100270.22;4976897;28;45994;-59
2021/07/04 10:05:43;;;;;;;;;1.00;1.00;;;;;24.69;50.14;100266.56;4976753;28;45650;-60
2021/07/04 10:08:20;;;;;;;;;1.00;1.00;;;;;24.70;50.63;100276.28;4976658;28;45410;-60
2021/07/04 10:10:45;;;;;;;;;2.00;2.00;;;;;24.67;49.65;100259.78;4976691;28;45424;-60
2021/07/04 10:13:11;;;;;;;;;3.50;2.00;;;;;24.61;49.40;100264.25;4975136;28;46256;-60
2021/07/04 10:15:36;;;;;;;;;3.00;2.00;;;;;24.53;48.11;100259.25;4976580;28;45296;-59
2021/07/04 10:18:02;;;;;;;;;2.50;2.00;;;;;24.44;49.28;100262.28;4958454;28;61456;-60
2021/07/04 10:20:27;;;;;;;;;2.00;2.00;;;;;24.37;49.07;100266.16;4976514;28;45212;-59
2021/07/04 10:22:52;;;;;;;;;1.25;1.25;;;;;24.27;48.96;100269.44;4958968;28;47578;-59
2021/07/04 10:25:18;;;;;;;;;2.00;2.00;;;;;24.14;49.22;100263.25;4974373;28;65380;-59
2021/07/04 10:27:43;;;;;;;;;2.00;2.00;;;;;23.99;49.25;100281.66;4975618;28;68914;-60
2021/07/04 10:30:09;;;;;;;;;3.00;2.00;;;;;23.83;48.73;100267.88;4975315;28;45407;-60
2021/07/04 10:32:34;;;;;;;;;2.00;2.00;;;;;23.74;48.87;100268.41;4976213;28;45914;-60
2021/07/04 10:35:08;;;;;;;;;1.00;1.00;;;;;23.66;49.48;100266.88;4976423;28;45332;-60
2021/07/04 10:37:35;;;;;;;;;1.50;1.50;;;;;23.61;50.58;100269.44;4976076;28;45293;-59
2021/07/04 10:40:16;;;;;;;;;1.75;1.75;;;;;23.58;49.77;100268.03;4976388;28;45350;-59
2021/07/04 10:42:42;;;;;;;;;3.75;2.00;;;;;23.53;50.68;100259.88;4976337;28;45343;-59
2021/07/04 10:45:31;;;;;;;;;3.00;2.00;;;;;23.51;51.21;100270.81;4976309;28;45162;-60
2021/07/04 10:47:58;;;;;;;;;1.50;1.50;;;;;23.50;50.51;100266.50;4983586;28;45510;-59
2021/07/04 10:50:23;;;;;;;;;2.50;2.50;;;;;23.52;50.89;100258.25;4976373;28;45490;-59
2021/07/04 10:52:50;;;;;;;;;3.00;2.00;;;;;23.51;51.43;100257.41;4975868;28;45945;-60
2021/07/04 10:55:28;;;;;;;;;2.00;2.00;;;;;23.53;51.49;100258.00;4975955;28;45945;-59
2021/07/04 10:57:55;;;;;;;;;3.25;2.00;;;;;23.53;51.16;100258.00;4976240;28;45212;-60
2021/07/04 11:00:33;;;;;;;;;1.75;1.75;;;;;23.54;51.09;100256.94;4974936;28;45597;-59
2021/07/04 11:03:00;;;;;;;;;3.50;3.50;;;;;23.56;50.97;100262.09;4975926;28;45497;-60
2021/07/04 11:05:35;;;;;;;;;3.25;3.25;;;;;23.60;51.19;100251.72;4975783;28;45846;-60
2021/07/04 11:08:05;;;;;;;;;1.75;1.75;;;;;23.63;51.36;100249.38;4976255;28;45348;-60
2021/07/04 11:10:32;;;;;;;;;3.50;3.50;;;;;23.67;50.99;100252.44;4975698;28;45544;-60
2021/07/04 11:13:07;;;;;;;;;4.00;2.00;;;;;23.76;51.02;100243.00;4957196;28;46164;-60
2021/07/04 11:15:32;;;;;;;;;4.25;4.25;;;;;23.86;50.30;100235.19;4975595;28;45257;-59
2021/07/04 11:17:58;;;;;;;;;4.75;4.00;;;;;23.98;50.21;100231.69;4974787;28;45564;-59